Terminal Aerodrome Forecast
Issued by NWS Grand Forks, ND

Home | Current Version | Previous Version | Text Only | Print | Product List | Glossary Off
Versions: 1 2 3 4 5 6 7 8 9 10 11 12 13 14 15 16

542
FTUS43 KFGF 262324
TAFFAR
TAF
KFAR 262324Z 2700/2724 36011KT 1SM -SN BKN008
      TEMPO 2700/2702 3SM -SN SCT008 BKN018
     FM270200 35009KT P6SM OVC015
     FM270800 35007KT P6SM OVC015
     FM272200 33010KT P6SM BKN020=

USA.gov is the U.S. government's official web portal to all federal, state and local government web resources and services.